createdAt,value
2023-04-23T00:02:13.846Z,2.42
2023-04-23T00:04:50.622Z,2.10
2023-04-23T00:07:20.155Z,2.00
2023-04-23T00:09:47.406Z,1.83
2023-04-23T00:12:14.663Z,1.92
2023-04-23T00:14:42.029Z,2.00
2023-04-23T00:17:08.976Z,2.17
2023-04-23T00:19:35.680Z,2.20
2023-04-23T00:22:03.321Z,1.90
2023-04-23T00:24:32.304Z,2.20
2023-04-23T00:26:59.236Z,2.03
2023-04-23T00:29:25.946Z,1.75
2023-04-23T00:31:53.075Z,1.92
2023-04-23T00:34:19.815Z,2.30
2023-04-23T00:36:46.749Z,2.50
2023-04-23T00:39:13.617Z,2.70
2023-04-23T00:41:41.952Z,3.03
2023-04-23T00:44:12.436Z,2.75
2023-04-23T00:46:39.188Z,2.97
2023-04-23T00:49:06.752Z,3.35
2023-04-23T00:51:33.689Z,3.65
2023-04-23T00:54:00.795Z,3.80
2023-04-23T00:56:28.303Z,3.92
2023-04-23T00:58:55.383Z,3.90
2023-04-23T01:01:22.406Z,3.42
2023-04-23T01:03:50.807Z,3.13
2023-04-23T01:06:17.903Z,2.50
2023-04-23T01:08:45.824Z,2.60
2023-04-23T01:11:14.533Z,2.58
2023-04-23T01:13:42.964Z,2.50
2023-04-23T01:16:11.383Z,2.90
2023-04-23T01:18:41.315Z,2.80
2023-04-23T01:21:12.117Z,2.55
2023-04-23T01:27:07.931Z,2.95
2023-04-23T01:29:34.926Z,3.13
2023-04-23T01:32:02.994Z,3.25
2023-04-23T01:34:33.184Z,3.20
2023-04-23T01:36:59.924Z,3.42
2023-04-23T01:39:26.719Z,4.25
2023-04-23T01:41:53.894Z,4.53
2023-04-23T01:44:21.065Z,4.40
2023-04-23T01:46:47.851Z,4.22
2023-04-23T01:49:14.618Z,4.28
2023-04-23T01:51:43.142Z,4.78
2023-04-23T01:54:09.925Z,4.68
2023-04-23T01:56:39.914Z,4.68
2023-04-23T01:59:07.754Z,4.90
2023-04-23T02:01:47.583Z,5.10
2023-04-23T02:04:15.579Z,5.03
2023-04-23T02:06:44.669Z,5.65
2023-04-23T02:09:12.179Z,5.53
2023-04-23T02:11:39.170Z,5.22
2023-04-23T02:14:07.288Z,5.35
2023-04-23T02:16:34.899Z,5.15
2023-04-23T02:19:02.213Z,5.18
2023-04-23T02:21:30.093Z,5.38
2023-04-23T02:23:57.986Z,4.78
2023-04-23T02:26:25.414Z,5.10
2023-04-23T02:28:52.334Z,4.70
2023-04-23T02:31:21.052Z,4.60
2023-04-23T02:33:48.036Z,5.13
2023-04-23T02:36:14.977Z,5.03
2023-04-23T02:38:45.875Z,5.45
2023-04-23T02:41:12.796Z,5.03
2023-04-23T02:43:39.628Z,5.53
2023-04-23T02:46:10.046Z,5.40
2023-04-23T02:48:41.757Z,6.68
2023-04-23T02:51:11.130Z,6.43
2023-04-23T02:53:38.001Z,6.40
2023-04-23T02:56:05.546Z,6.20
2023-04-23T02:58:32.284Z,6.60
2023-04-23T03:00:59.470Z,6.20
2023-04-23T03:03:27.700Z,5.75
2023-04-23T03:05:55.528Z,5.25
2023-04-23T03:08:22.339Z,5.32
2023-04-23T03:10:49.514Z,5.45
2023-04-23T03:13:16.498Z,5.47
2023-04-23T03:15:43.240Z,5.72
2023-04-23T03:18:09.985Z,4.70
2023-04-23T03:20:37.317Z,4.78
2023-04-23T03:23:06.670Z,5.55
2023-04-23T03:25:34.525Z,5.85
2023-04-23T03:28:01.763Z,6.70
2023-04-23T03:30:29.325Z,5.13
2023-04-23T03:33:00.238Z,5.00
2023-04-23T03:35:27.301Z,4.68
2023-04-23T03:37:54.286Z,4.35
2023-04-23T03:40:21.783Z,3.75
2023-04-23T03:42:48.730Z,3.65
2023-04-23T03:45:17.100Z,3.08
2023-04-23T03:47:44.228Z,2.88
2023-04-23T03:50:13.586Z,3.00
2023-04-23T03:52:40.732Z,2.97
2023-04-23T03:55:08.740Z,2.75
2023-04-23T03:57:36.771Z,2.70
2023-04-23T04:00:05.791Z,2.80
2023-04-23T04:02:32.805Z,3.22
2023-04-23T04:05:00.060Z,2.88
2023-04-23T04:07:27.262Z,3.30
2023-04-23T04:09:54.148Z,3.25
2023-04-23T04:12:21.376Z,3.17
2023-04-23T04:14:48.488Z,2.47
2023-04-23T04:17:16.408Z,2.30
2023-04-23T04:19:43.527Z,2.20
2023-04-23T04:22:10.631Z,2.00
2023-04-23T04:24:38.192Z,2.10
2023-04-23T04:27:06.240Z,1.83
2023-04-23T04:29:33.726Z,1.80
2023-04-23T04:32:01.863Z,2.10
2023-04-23T04:34:29.283Z,2.00
2023-04-23T04:36:56.231Z,2.10
2023-04-23T04:39:23.507Z,2.28
2023-04-23T04:41:50.446Z,2.30
2023-04-23T04:44:17.849Z,2.05
2023-04-23T04:46:45.514Z,1.90
2023-04-23T04:49:12.695Z,2.00
2023-04-23T04:51:40.430Z,2.15
2023-04-23T04:54:08.133Z,1.85
2023-04-23T04:56:35.333Z,1.80
2023-04-23T04:59:02.937Z,2.00
2023-04-23T05:01:30.053Z,1.90
2023-04-23T05:03:58.168Z,2.10
2023-04-23T05:06:25.138Z,2.00
2023-04-23T05:08:52.144Z,2.10
2023-04-23T05:11:20.730Z,2.38
2023-04-23T05:13:48.008Z,2.20
2023-04-23T05:16:14.946Z,2.28
2023-04-23T05:18:42.659Z,2.30
2023-04-23T05:21:09.716Z,2.40
2023-04-23T05:23:39.449Z,2.40
2023-04-23T05:26:06.338Z,2.47
2023-04-23T05:28:33.391Z,2.60
2023-04-23T05:31:03.617Z,2.70
2023-04-23T05:33:49.189Z,2.75
2023-04-23T05:36:21.468Z,2.97
2023-04-23T05:38:56.369Z,3.22
2023-04-23T05:41:23.190Z,3.05
2023-04-23T05:43:50.719Z,2.75
2023-04-23T05:46:17.956Z,2.90
2023-04-23T05:48:44.676Z,3.03
2023-04-23T05:51:11.873Z,3.10
2023-04-23T05:53:38.581Z,3.40
2023-04-23T05:56:05.675Z,2.70
2023-04-23T05:58:32.488Z,3.38
2023-04-23T06:00:59.610Z,3.50
2023-04-23T06:03:27.356Z,3.40
2023-04-23T06:05:54.397Z,3.10
2023-04-23T06:08:22.320Z,3.38
2023-04-23T06:10:50.465Z,3.35
2023-04-23T06:13:17.636Z,3.10
2023-04-23T06:15:44.416Z,3.63
2023-04-23T06:18:11.717Z,3.40
2023-04-23T06:20:39.003Z,3.83
2023-04-23T06:23:06.833Z,4.22
2023-04-23T06:25:33.718Z,4.07
2023-04-23T06:28:00.613Z,4.40
2023-04-23T06:30:28.125Z,4.50
2023-04-23T06:32:55.856Z,4.72
2023-04-23T06:35:22.803Z,4.40
2023-04-23T06:37:50.057Z,4.68
2023-04-23T06:40:17.212Z,4.97
2023-04-23T06:42:45.828Z,4.93
2023-04-23T06:45:12.611Z,4.13
2023-04-23T06:47:40.129Z,4.05
2023-04-23T06:50:08.750Z,4.10
2023-04-23T06:52:36.307Z,3.90
2023-04-23T06:55:03.749Z,4.13
2023-04-23T06:57:30.738Z,3.70
2023-04-23T06:59:57.506Z,3.90
2023-04-23T07:02:24.491Z,3.58
2023-04-23T07:04:51.338Z,4.15
2023-04-23T07:07:18.331Z,3.90
2023-04-23T07:09:45.174Z,3.67
2023-04-23T07:12:12.078Z,3.78
2023-04-23T07:14:39.088Z,3.47
2023-04-23T07:17:07.175Z,3.60
2023-04-23T07:19:33.989Z,3.22
2023-04-23T07:22:00.985Z,3.30
2023-04-23T07:24:28.003Z,3.33
2023-04-23T07:26:55.291Z,3.60
2023-04-23T07:29:22.216Z,3.80
2023-04-23T07:31:49.019Z,3.08
2023-04-23T07:34:16.427Z,3.50
2023-04-23T07:36:43.677Z,3.35
2023-04-23T07:39:11.465Z,3.33
2023-04-23T07:41:38.609Z,3.10
2023-04-23T07:44:06.265Z,2.97
2023-04-23T07:46:33.258Z,3.15
2023-04-23T07:49:00.246Z,3.30
2023-04-23T07:51:27.414Z,3.40
2023-04-23T07:53:58.795Z,3.47
2023-04-23T07:56:26.162Z,3.05
2023-04-23T07:58:54.425Z,3.00
2023-04-23T08:01:22.471Z,2.75
2023-04-23T08:03:49.651Z,2.88
2023-04-23T08:06:18.877Z,3.00
2023-04-23T08:08:45.582Z,3.10
2023-04-23T08:11:12.398Z,3.13
2023-04-23T08:13:39.422Z,2.90
2023-04-23T08:16:07.698Z,3.15
2023-04-23T08:18:35.520Z,3.20
2023-04-23T08:21:02.312Z,2.50
2023-04-23T08:23:29.154Z,2.90
2023-04-23T08:25:55.922Z,2.65
2023-04-23T08:28:22.906Z,2.75
2023-04-23T08:30:49.666Z,2.80
2023-04-23T08:33:16.662Z,2.90
2023-04-23T08:35:43.762Z,2.67
2023-04-23T08:38:10.941Z,2.83
2023-04-23T08:40:39.226Z,2.70
2023-04-23T08:43:13.136Z,2.53
2023-04-23T08:45:41.868Z,2.40
2023-04-23T08:48:10.176Z,2.65
2023-04-23T08:50:38.600Z,2.40
2023-04-23T08:53:07.251Z,2.80
2023-04-23T08:55:35.658Z,2.60
2023-04-23T08:58:06.502Z,2.63
2023-04-23T09:00:34.953Z,2.70
2023-04-23T09:03:02.394Z,2.40
2023-04-23T09:05:29.402Z,2.60
2023-04-23T09:07:57.061Z,2.20
2023-04-23T09:10:24.208Z,2.25
2023-04-23T09:12:51.953Z,2.90
2023-04-23T09:15:18.970Z,2.53
2023-04-23T09:17:47.544Z,2.13
2023-04-23T09:20:15.465Z,2.42
2023-04-23T09:22:47.616Z,2.33
2023-04-23T09:25:19.571Z,2.60
2023-04-23T09:27:48.083Z,2.30
2023-04-23T09:30:16.352Z,2.55
2023-04-23T09:32:46.231Z,2.70
2023-04-23T09:35:17.473Z,2.70
2023-04-23T09:37:49.334Z,2.90
2023-04-23T09:40:18.444Z,2.55
2023-04-23T09:42:56.125Z,2.40
2023-04-23T09:45:25.987Z,2.92
2023-04-23T09:47:55.475Z,2.70
2023-04-23T09:50:39.788Z,2.88
2023-04-23T09:53:11.121Z,2.90
2023-04-23T09:55:39.575Z,2.88
2023-04-23T09:58:13.244Z,3.03
2023-04-23T10:00:42.251Z,3.47
2023-04-23T10:03:10.357Z,3.03
2023-04-23T10:08:15.697Z,3.30
2023-04-23T10:10:59.605Z,2.95
2023-04-23T10:13:29.423Z,2.63
2023-04-23T10:16:04.692Z,2.50
2023-04-23T10:18:34.322Z,2.97
2023-04-23T10:21:02.652Z,2.88
2023-04-23T10:23:30.210Z,2.80
2023-04-23T10:25:58.404Z,2.75
2023-04-23T10:28:29.669Z,2.70
2023-04-23T10:30:57.401Z,2.67
2023-04-23T10:35:57.525Z,2.67
2023-04-23T10:38:24.718Z,2.78
2023-04-23T10:40:53.211Z,2.50
2023-04-23T10:43:23.506Z,2.70
2023-04-23T10:45:50.456Z,2.72
2023-04-23T10:48:17.493Z,2.60
2023-04-23T10:51:02.357Z,2.65
2023-04-23T10:53:32.108Z,2.70
2023-04-23T10:56:07.218Z,3.00
2023-04-23T10:58:53.041Z,2.70
2023-04-23T11:01:22.473Z,2.75
2023-04-23T11:03:49.356Z,2.75
2023-04-23T11:06:42.114Z,2.85
2023-04-23T11:09:31.885Z,2.90
2023-04-23T11:11:59.692Z,2.40
2023-04-23T11:15:02.226Z,2.60
2023-04-23T11:18:01.834Z,2.90
2023-04-23T11:20:28.811Z,2.70
2023-04-23T11:22:56.354Z,2.50
2023-04-23T11:25:28.440Z,2.30
2023-04-23T11:27:56.605Z,2.05
2023-04-23T11:30:25.961Z,2.50
2023-04-23T11:32:55.329Z,2.42
2023-04-23T11:35:30.321Z,2.05
2023-04-23T11:37:57.318Z,2.33
2023-04-23T11:40:24.772Z,2.33
2023-04-23T11:42:55.600Z,2.63
2023-04-23T11:45:29.291Z,2.20
2023-04-23T11:47:57.852Z,2.25
2023-04-23T11:50:27.742Z,2.70
2023-04-23T11:52:54.963Z,2.30
2023-04-23T11:55:23.401Z,2.42
2023-04-23T11:57:51.557Z,2.30
2023-04-23T12:00:23.282Z,2.00
2023-04-23T12:03:08.969Z,2.15
2023-04-23T12:05:39.372Z,2.30
2023-04-23T12:08:15.311Z,1.77
2023-04-23T12:10:44.902Z,2.00
2023-04-23T12:13:33.846Z,1.95
2023-04-23T12:16:02.579Z,2.00
2023-04-23T12:18:36.029Z,1.70
2023-04-23T12:21:07.473Z,1.70
2023-04-23T12:23:36.487Z,1.63
2023-04-23T12:26:03.941Z,1.73
2023-04-23T12:28:30.730Z,1.80
2023-04-23T12:31:02.932Z,1.88
2023-04-23T12:33:31.161Z,1.45
2023-04-23T12:35:58.252Z,1.50
2023-04-23T12:38:27.123Z,1.95
2023-04-23T12:40:55.300Z,3.08
2023-04-23T12:43:22.806Z,2.50
2023-04-23T12:45:49.789Z,2.00
2023-04-23T12:48:16.902Z,1.90
2023-04-23T12:50:46.730Z,1.70
2023-04-23T12:53:14.238Z,1.40
2023-04-23T12:55:43.573Z,1.63
2023-04-23T12:58:11.957Z,1.60
2023-04-23T13:00:39.103Z,1.60
2023-04-23T13:03:06.539Z,1.40
2023-04-23T13:05:34.769Z,1.30
2023-04-23T13:08:01.901Z,1.40
2023-04-23T13:10:34.346Z,1.40
2023-04-23T13:13:01.313Z,1.30
2023-04-23T13:15:28.161Z,1.30
2023-04-23T13:17:55.076Z,1.10
2023-04-23T13:20:22.093Z,1.50
2023-04-23T13:22:49.359Z,1.25
2023-04-23T13:25:16.455Z,1.20
2023-04-23T13:27:43.227Z,1.30
2023-04-23T13:30:11.530Z,1.30
2023-04-23T13:32:41.794Z,1.15
2023-04-23T13:35:09.498Z,1.20
2023-04-23T13:37:36.727Z,1.40
2023-04-23T13:40:04.302Z,1.50
2023-04-23T13:42:31.184Z,0.90
2023-04-23T13:44:57.973Z,1.20
2023-04-23T13:47:24.872Z,1.58
2023-04-23T13:49:52.066Z,1.30
2023-04-23T13:52:18.871Z,1.20
2023-04-23T13:54:47.991Z,1.20
2023-04-23T13:57:15.517Z,1.20
2023-04-23T13:59:42.513Z,1.35
2023-04-23T14:02:09.719Z,1.20
2023-04-23T14:04:37.201Z,1.10
2023-04-23T14:07:04.060Z,1.10
2023-04-23T14:09:31.430Z,1.30
2023-04-23T14:11:58.759Z,1.20
2023-04-23T14:14:25.842Z,1.20
2023-04-23T14:16:52.697Z,1.20
2023-04-23T14:19:19.432Z,1.05
2023-04-23T14:21:46.219Z,1.10
2023-04-23T14:24:24.912Z,1.10
2023-04-23T14:26:51.853Z,1.13
2023-04-23T14:29:36.573Z,1.10
2023-04-23T14:32:03.798Z,1.00
2023-04-23T14:34:30.919Z,1.17
2023-04-23T14:36:58.292Z,1.20
2023-04-23T14:39:26.946Z,1.33
2023-04-23T14:41:53.862Z,1.25
2023-04-23T14:44:23.586Z,1.15
2023-04-23T14:46:51.463Z,1.00
2023-04-23T14:49:19.553Z,1.13
2023-04-23T14:51:47.017Z,1.20
2023-04-23T14:54:14.325Z,1.10
2023-04-23T14:56:42.105Z,1.10
2023-04-23T14:59:09.245Z,1.00
2023-04-23T15:01:36.316Z,1.08
2023-04-23T15:04:03.640Z,1.17
2023-04-23T15:06:31.053Z,1.20
2023-04-23T15:08:57.799Z,0.95
2023-04-23T15:11:24.906Z,1.10
2023-04-23T15:14:36.320Z,1.17
2023-04-23T15:17:03.457Z,1.05
2023-04-23T15:19:33.292Z,0.85
2023-04-23T15:22:00.302Z,0.90
2023-04-23T15:24:27.041Z,1.02
2023-04-23T15:26:55.297Z,0.90
2023-04-23T15:29:25.264Z,1.10
2023-04-23T15:31:58.587Z,1.00
2023-04-23T15:34:26.213Z,1.05
2023-04-23T15:36:53.117Z,1.10
2023-04-23T15:39:20.721Z,1.05
2023-04-23T15:41:47.479Z,1.20
2023-04-23T15:44:14.638Z,1.20
2023-04-23T15:46:41.888Z,1.00
2023-04-23T15:49:09.232Z,1.00
2023-04-23T15:51:37.359Z,1.15
2023-04-23T15:54:08.995Z,0.93
2023-04-23T15:56:36.673Z,1.40
2023-04-23T15:59:03.771Z,1.20
2023-04-23T16:01:31.032Z,1.33
2023-04-23T16:06:27.718Z,1.50
2023-04-23T16:08:54.469Z,2.38
2023-04-23T16:11:21.996Z,1.70
2023-04-23T16:13:48.889Z,1.73
2023-04-23T16:16:15.585Z,1.75
2023-04-23T16:18:42.746Z,1.50
2023-04-23T16:21:09.826Z,4.72
2023-04-23T16:23:37.526Z,4.13
2023-04-23T16:26:08.959Z,3.92
2023-04-23T16:28:37.072Z,4.93
2023-04-23T16:31:04.099Z,5.07
2023-04-23T16:33:31.899Z,4.00
2023-04-23T16:35:59.913Z,1.92
2023-04-23T16:38:27.031Z,1.20
2023-04-23T16:40:54.077Z,1.55
2023-04-23T16:43:21.071Z,3.38
2023-04-23T16:45:47.989Z,3.22
2023-04-23T16:48:16.899Z,1.50
2023-04-23T16:50:44.600Z,1.38
2023-04-23T16:53:11.601Z,1.20
2023-04-23T16:55:38.560Z,1.67
2023-04-23T16:58:06.462Z,2.00
2023-04-23T17:00:33.255Z,1.60
2023-04-23T17:03:00.180Z,1.98
2023-04-23T17:05:28.064Z,1.70
2023-04-23T17:07:54.973Z,1.70
2023-04-23T17:10:22.031Z,1.30
2023-04-23T17:12:54.168Z,1.63
2023-04-23T17:15:23.071Z,1.33
2023-04-23T17:17:50.298Z,1.70
2023-04-23T17:20:17.967Z,1.27
2023-04-23T17:22:45.392Z,1.50
2023-04-23T17:25:12.402Z,1.40
2023-04-23T17:27:39.075Z,1.45
2023-04-23T17:30:07.075Z,1.50
2023-04-23T17:32:33.907Z,1.55
2023-04-23T17:35:09.525Z,1.95
2023-04-23T17:37:37.680Z,1.55
2023-04-23T17:40:06.571Z,1.85
2023-04-23T17:42:33.590Z,2.10
2023-04-23T17:45:00.623Z,1.98
2023-04-23T17:47:27.918Z,1.60
2023-04-23T17:49:55.132Z,1.70
2023-04-23T17:52:22.556Z,2.00
2023-04-23T17:54:49.468Z,1.67
2023-04-23T17:57:16.833Z,1.30
2023-04-23T17:59:43.794Z,1.27
2023-04-23T18:02:11.785Z,1.50
2023-04-23T18:04:38.683Z,1.30
2023-04-23T18:07:05.526Z,1.40
2023-04-23T18:09:32.302Z,1.42
2023-04-23T18:11:59.899Z,1.40
2023-04-23T18:14:26.809Z,1.40
2023-04-23T18:16:53.883Z,1.30
2023-04-23T18:19:20.858Z,1.42
2023-04-23T18:21:48.467Z,1.17
2023-04-23T18:24:18.614Z,1.30
2023-04-23T18:26:45.433Z,1.40
2023-04-23T18:29:12.411Z,1.58
2023-04-23T18:31:39.185Z,1.73
2023-04-23T18:34:10.066Z,1.50
2023-04-23T18:36:38.306Z,1.67
2023-04-23T18:39:07.243Z,1.52
2023-04-23T18:41:35.053Z,1.60
2023-04-23T18:44:02.851Z,1.40
2023-04-23T18:46:31.281Z,1.73
2023-04-23T18:49:49.738Z,1.88
2023-04-23T18:52:16.777Z,1.70
2023-04-23T18:54:45.063Z,1.70
2023-04-23T18:57:11.818Z,1.70
2023-04-23T18:59:38.622Z,1.60
2023-04-23T19:02:05.639Z,1.75
2023-04-23T19:04:33.561Z,2.10
2023-04-23T19:07:00.776Z,1.75
2023-04-23T19:09:27.547Z,5.50
2023-04-23T19:11:55.009Z,2.28
2023-04-23T19:14:21.979Z,3.17
2023-04-23T19:16:50.681Z,2.00
2023-04-23T19:19:17.951Z,5.97
2023-04-23T19:21:48.875Z,2.00
2023-04-23T19:24:16.229Z,2.10
2023-04-23T19:26:42.997Z,2.00
2023-04-23T19:29:09.797Z,3.63
2023-04-23T19:31:36.963Z,2.75
2023-04-23T19:34:04.157Z,2.10
2023-04-23T19:36:31.169Z,1.70
2023-04-23T19:38:58.197Z,1.50
2023-04-23T19:41:26.217Z,1.33
2023-04-23T19:43:53.357Z,0.98
2023-04-23T19:48:47.260Z,0.90
2023-04-23T19:51:14.384Z,0.90
2023-04-23T19:53:41.327Z,1.08
2023-04-23T19:56:13.421Z,1.00
2023-04-23T19:58:41.051Z,0.98
2023-04-23T20:01:08.274Z,1.10
2023-04-23T20:03:35.210Z,0.95
2023-04-23T20:06:02.014Z,1.10
2023-04-23T20:08:41.690Z,1.38
2023-04-23T20:11:10.883Z,0.82
2023-04-23T20:13:37.737Z,0.77
2023-04-23T20:16:04.704Z,0.82
2023-04-23T20:18:35.603Z,0.80
2023-04-23T20:21:02.527Z,1.00
2023-04-23T20:23:29.475Z,1.00
2023-04-23T20:25:56.399Z,1.00
2023-04-23T20:28:23.214Z,0.90
2023-04-23T20:30:49.985Z,0.93
2023-04-23T20:33:19.047Z,1.00
2023-04-23T20:35:45.823Z,1.00
2023-04-23T20:38:13.701Z,1.15
2023-04-23T20:40:41.196Z,1.05
2023-04-23T20:43:08.740Z,1.40
2023-04-23T20:45:36.690Z,1.63
2023-04-23T20:48:04.041Z,1.77
2023-04-23T20:50:31.108Z,2.00
2023-04-23T20:52:57.894Z,1.67
2023-04-23T20:55:24.715Z,1.65
2023-04-23T20:57:51.517Z,1.70
2023-04-23T21:00:20.697Z,1.40
2023-04-23T21:02:47.701Z,1.20
2023-04-23T21:05:14.811Z,1.05
2023-04-23T21:07:42.322Z,0.98
2023-04-23T21:10:09.608Z,1.23
2023-04-23T21:12:36.668Z,1.13
2023-04-23T21:15:03.952Z,1.20
2023-04-23T21:17:30.921Z,1.08
2023-04-23T21:19:57.781Z,1.20
2023-04-23T21:22:24.688Z,1.23
2023-04-23T21:24:51.478Z,1.10
2023-04-23T21:27:22.118Z,0.93
2023-04-23T21:29:49.474Z,1.15
2023-04-23T21:32:16.582Z,1.27
2023-04-23T21:34:43.655Z,1.13
2023-04-23T21:37:10.879Z,1.45
2023-04-23T21:39:37.904Z,1.30
2023-04-23T21:42:05.125Z,1.30
2023-04-23T21:44:32.122Z,1.35
2023-04-23T21:46:59.105Z,1.40
2023-04-23T21:49:26.076Z,1.92
2023-04-23T21:51:54.861Z,2.25
2023-04-23T21:54:21.917Z,1.60
2023-04-23T21:56:49.136Z,1.40
2023-04-23T21:59:16.311Z,1.50
2023-04-23T22:01:43.166Z,1.50
2023-04-23T22:04:10.585Z,1.55
2023-04-23T22:06:37.418Z,1.70
2023-04-23T22:09:04.577Z,1.52
2023-04-23T22:11:31.719Z,1.42
2023-04-23T22:13:59.418Z,1.70
2023-04-23T22:16:28.661Z,1.67
2023-04-23T22:18:59.648Z,1.70
2023-04-23T22:21:26.632Z,1.98
2023-04-23T22:23:53.554Z,1.50
2023-04-23T22:26:20.415Z,1.80
2023-04-23T22:28:47.406Z,1.70
2023-04-23T22:31:14.200Z,1.77
2023-04-23T22:33:41.091Z,2.00
2023-04-23T22:36:07.992Z,1.90
2023-04-23T22:38:34.960Z,1.95
2023-04-23T22:41:02.407Z,1.95
2023-04-23T22:43:29.467Z,2.15
2023-04-23T22:45:56.497Z,2.05
2023-04-23T22:48:24.258Z,1.90
2023-04-23T22:50:51.454Z,1.70
2023-04-23T22:53:19.975Z,1.80
2023-04-23T22:55:47.104Z,1.83
2023-04-23T22:58:14.013Z,1.90
2023-04-23T23:00:40.914Z,2.00
2023-04-23T23:03:08.706Z,2.08
2023-04-23T23:05:35.960Z,2.28
2023-04-23T23:08:03.182Z,2.70
2023-04-23T23:10:30.114Z,2.63
2023-04-23T23:12:57.104Z,2.40
2023-04-23T23:15:24.012Z,2.60
2023-04-23T23:17:51.334Z,2.50
2023-04-23T23:20:18.399Z,2.47
2023-04-23T23:22:45.337Z,2.85
2023-04-23T23:25:12.296Z,3.03
2023-04-23T23:27:38.987Z,2.80
2023-04-23T23:30:08.297Z,2.42
2023-04-23T23:32:35.618Z,2.17
2023-04-23T23:35:03.402Z,2.10
2023-04-23T23:37:30.980Z,2.05
2023-04-23T23:39:57.698Z,2.05
2023-04-23T23:42:24.528Z,2.05
2023-04-23T23:44:51.248Z,1.70
2023-04-23T23:47:17.974Z,2.00
2023-04-23T23:49:44.828Z,1.80
2023-04-23T23:52:11.679Z,1.70
2023-04-23T23:54:38.448Z,1.95
2023-04-23T23:57:05.488Z,2.15
2023-04-23T23:59:32.364Z,2.03
